< < Back
Terminal Aerodrome Forecast


Current Version              Previous Versions:   1  2  3  4  5  6  7  8  9  

Terminal Aerodrome Forecast

953
FTUS42 KJAX 191100
TAFGNV
TAF
KGNV 191120Z 1912/2012 20008KT P6SM VCSH BKN010 BKN025
      TEMPO 1912/1914 SCT015 SCT030
     FM191400 23008KT P6SM VCSH SCT015 BKN035
     FM191900 29010KT P6SM VCSH BKN035
     FM200300 32008KT P6SM SCT010 SCT025=

Latest METAR

668
SAUS70 KWBC 192200 RRL
MTRGNV
METAR KGNV 192153Z 24006KT 10SM OVC017 18/15 A2993 RMK AO2 SLP133
T01780150


USA.gov is the U.S. government's official web portal to all federal, state and local government web resources and services.